sensor_id;sensor_type;location;lat;lon;timestamp;P1;durP1;ratioP1;P2;durP2;ratioP2
80127;SDS011;69440;52.118;5.408;2024-02-26T00:01:00;4.63;;;2.42;;
80127;SDS011;69440;52.118;5.408;2024-02-26T00:03:27;4.05;;;2.38;;
80127;SDS011;69440;52.118;5.408;2024-02-26T00:05:53;4.55;;;2.83;;
80127;SDS011;69440;52.118;5.408;2024-02-26T00:08:21;3.55;;;2.45;;
80127;SDS011;69440;52.118;5.408;2024-02-26T00:10:48;4.93;;;2.88;;
80127;SDS011;69440;52.118;5.408;2024-02-26T00:13:14;3.75;;;2.63;;
80127;SDS011;69440;52.118;5.408;2024-02-26T00:15:41;5.93;;;2.90;;
80127;SDS011;69440;52.118;5.408;2024-02-26T00:20:34;3.65;;;2.60;;
80127;SDS011;69440;52.118;5.408;2024-02-26T00:23:01;5.95;;;3.05;;
80127;SDS011;69440;52.118;5.408;2024-02-26T00:25:27;4.50;;;3.03;;
80127;SDS011;69440;52.118;5.408;2024-02-26T00:27:54;4.85;;;3.30;;
80127;SDS011;69440;52.118;5.408;2024-02-26T00:30:20;5.25;;;3.10;;
80127;SDS011;69440;52.118;5.408;2024-02-26T00:32:47;5.20;;;3.20;;
80127;SDS011;69440;52.118;5.408;2024-02-26T00:35:13;7.70;;;4.00;;
80127;SDS011;69440;52.118;5.408;2024-02-26T00:37:41;4.55;;;2.58;;
80127;SDS011;69440;52.118;5.408;2024-02-26T00:40:09;6.00;;;3.65;;
80127;SDS011;69440;52.118;5.408;2024-02-26T00:42:36;4.97;;;3.60;;
80127;SDS011;69440;52.118;5.408;2024-02-26T00:45:02;4.60;;;3.15;;
80127;SDS011;69440;52.118;5.408;2024-02-26T00:47:29;4.68;;;3.05;;
80127;SDS011;69440;52.118;5.408;2024-02-26T00:49:55;4.65;;;3.13;;
80127;SDS011;69440;52.118;5.408;2024-02-26T00:52:22;5.05;;;3.35;;
80127;SDS011;69440;52.118;5.408;2024-02-26T00:54:48;5.63;;;3.50;;
80127;SDS011;69440;52.118;5.408;2024-02-26T00:59:41;6.22;;;3.40;;
80127;SDS011;69440;52.118;5.408;2024-02-26T01:02:08;5.05;;;3.40;;
80127;SDS011;69440;52.118;5.408;2024-02-26T01:04:34;5.18;;;3.22;;
80127;SDS011;69440;52.118;5.408;2024-02-26T01:07:01;5.60;;;4.10;;
80127;SDS011;69440;52.118;5.408;2024-02-26T01:09:28;4.05;;;3.22;;
80127;SDS011;69440;52.118;5.408;2024-02-26T01:11:55;4.68;;;3.65;;
80127;SDS011;69440;52.118;5.408;2024-02-26T01:14:21;6.18;;;4.00;;
80127;SDS011;69440;52.118;5.408;2024-02-26T01:16:48;5.25;;;3.83;;
80127;SDS011;69440;52.118;5.408;2024-02-26T01:19:14;4.28;;;3.67;;
80127;SDS011;69440;52.118;5.408;2024-02-26T01:21:41;6.95;;;3.30;;
80127;SDS011;69440;52.118;5.408;2024-02-26T01:26:34;4.70;;;3.28;;
80127;SDS011;69440;52.118;5.408;2024-02-26T01:29:01;7.88;;;3.80;;
80127;SDS011;69440;52.118;5.408;2024-02-26T01:31:27;4.45;;;3.13;;
80127;SDS011;69440;52.118;5.408;2024-02-26T01:33:54;6.30;;;3.70;;
80127;SDS011;69440;52.118;5.408;2024-02-26T01:36:21;5.10;;;3.45;;
80127;SDS011;69440;52.118;5.408;2024-02-26T01:38:48;4.20;;;3.30;;
80127;SDS011;69440;52.118;5.408;2024-02-26T01:41:14;5.72;;;3.42;;
80127;SDS011;69440;52.118;5.408;2024-02-26T01:43:41;5.57;;;3.72;;
80127;SDS011;69440;52.118;5.408;2024-02-26T01:46:09;5.82;;;3.78;;
80127;SDS011;69440;52.118;5.408;2024-02-26T01:48:42;6.50;;;3.30;;
80127;SDS011;69440;52.118;5.408;2024-02-26T01:51:11;5.47;;;3.90;;
80127;SDS011;69440;52.118;5.408;2024-02-26T01:53:40;5.22;;;3.33;;
80127;SDS011;69440;52.118;5.408;2024-02-26T01:56:07;6.18;;;3.38;;
80127;SDS011;69440;52.118;5.408;2024-02-26T01:58:34;5.28;;;3.17;;
80127;SDS011;69440;52.118;5.408;2024-02-26T02:01:02;5.72;;;3.90;;
80127;SDS011;69440;52.118;5.408;2024-02-26T02:03:29;6.22;;;3.85;;
80127;SDS011;69440;52.118;5.408;2024-02-26T02:05:57;5.40;;;3.88;;
80127;SDS011;69440;52.118;5.408;2024-02-26T02:08:23;7.50;;;4.05;;
80127;SDS011;69440;52.118;5.408;2024-02-26T02:10:50;5.90;;;3.70;;
80127;SDS011;69440;52.118;5.408;2024-02-26T02:13:17;5.95;;;3.45;;
80127;SDS011;69440;52.118;5.408;2024-02-26T02:15:43;5.50;;;3.17;;
80127;SDS011;69440;52.118;5.408;2024-02-26T02:18:10;5.00;;;3.50;;
80127;SDS011;69440;52.118;5.408;2024-02-26T02:20:36;6.55;;;3.42;;
80127;SDS011;69440;52.118;5.408;2024-02-26T02:23:03;6.25;;;3.70;;
80127;SDS011;69440;52.118;5.408;2024-02-26T02:25:29;4.82;;;3.60;;
80127;SDS011;69440;52.118;5.408;2024-02-26T02:30:24;4.70;;;3.80;;
80127;SDS011;69440;52.118;5.408;2024-02-26T02:32:54;6.45;;;3.50;;
80127;SDS011;69440;52.118;5.408;2024-02-26T02:35:22;5.55;;;3.20;;
80127;SDS011;69440;52.118;5.408;2024-02-26T02:37:48;6.32;;;4.53;;
80127;SDS011;69440;52.118;5.408;2024-02-26T02:40:16;6.78;;;3.60;;
80127;SDS011;69440;52.118;5.408;2024-02-26T02:42:42;6.40;;;3.78;;
80127;SDS011;69440;52.118;5.408;2024-02-26T02:45:09;6.00;;;3.47;;
80127;SDS011;69440;52.118;5.408;2024-02-26T02:47:36;7.38;;;4.25;;
80127;SDS011;69440;52.118;5.408;2024-02-26T02:50:04;6.82;;;3.70;;
80127;SDS011;69440;52.118;5.408;2024-02-26T02:52:31;6.40;;;3.70;;
80127;SDS011;69440;52.118;5.408;2024-02-26T02:54:58;5.60;;;3.30;;
80127;SDS011;69440;52.118;5.408;2024-02-26T02:57:24;8.13;;;4.50;;
80127;SDS011;69440;52.118;5.408;2024-02-26T02:59:51;5.82;;;3.33;;
80127;SDS011;69440;52.118;5.408;2024-02-26T03:02:17;6.63;;;3.65;;
80127;SDS011;69440;52.118;5.408;2024-02-26T03:04:44;5.32;;;3.47;;
80127;SDS011;69440;52.118;5.408;2024-02-26T03:07:11;6.15;;;4.05;;
80127;SDS011;69440;52.118;5.408;2024-02-26T03:09:37;6.95;;;3.72;;
80127;SDS011;69440;52.118;5.408;2024-02-26T03:12:04;5.93;;;4.10;;
80127;SDS011;69440;52.118;5.408;2024-02-26T03:14:30;6.20;;;3.92;;
80127;SDS011;69440;52.118;5.408;2024-02-26T03:16:57;5.38;;;3.83;;
80127;SDS011;69440;52.118;5.408;2024-02-26T03:19:24;7.65;;;4.38;;
80127;SDS011;69440;52.118;5.408;2024-02-26T03:21:52;5.45;;;3.55;;
80127;SDS011;69440;52.118;5.408;2024-02-26T03:24:18;5.45;;;3.58;;
80127;SDS011;69440;52.118;5.408;2024-02-26T03:26:45;7.22;;;4.45;;
80127;SDS011;69440;52.118;5.408;2024-02-26T03:29:12;6.38;;;4.45;;
80127;SDS011;69440;52.118;5.408;2024-02-26T03:34:04;5.88;;;3.65;;
80127;SDS011;69440;52.118;5.408;2024-02-26T03:36:31;5.97;;;4.03;;
80127;SDS011;69440;52.118;5.408;2024-02-26T03:38:57;7.25;;;4.40;;
80127;SDS011;69440;52.118;5.408;2024-02-26T03:41:25;5.68;;;4.05;;
80127;SDS011;69440;52.118;5.408;2024-02-26T03:43:51;6.82;;;4.25;;
80127;SDS011;69440;52.118;5.408;2024-02-26T03:46:18;7.15;;;4.20;;
80127;SDS011;69440;52.118;5.408;2024-02-26T03:48:44;7.68;;;4.55;;
80127;SDS011;69440;52.118;5.408;2024-02-26T03:51:11;8.25;;;4.70;;
80127;SDS011;69440;52.118;5.408;2024-02-26T03:53:37;9.10;;;5.10;;
80127;SDS011;69440;52.118;5.408;2024-02-26T03:56:04;8.15;;;4.38;;
80127;SDS011;69440;52.118;5.408;2024-02-26T03:58:31;8.43;;;5.22;;
80127;SDS011;69440;52.118;5.408;2024-02-26T04:00:59;7.28;;;4.88;;
80127;SDS011;69440;52.118;5.408;2024-02-26T04:03:26;7.78;;;5.18;;
80127;SDS011;69440;52.118;5.408;2024-02-26T04:05:52;8.48;;;5.32;;
80127;SDS011;69440;52.118;5.408;2024-02-26T04:08:19;7.93;;;4.43;;
80127;SDS011;69440;52.118;5.408;2024-02-26T04:10:46;7.28;;;5.00;;
80127;SDS011;69440;52.118;5.408;2024-02-26T04:13:12;8.63;;;4.95;;
80127;SDS011;69440;52.118;5.408;2024-02-26T04:18:05;7.95;;;5.10;;
80127;SDS011;69440;52.118;5.408;2024-02-26T04:20:32;8.43;;;4.75;;
80127;SDS011;69440;52.118;5.408;2024-02-26T04:22:58;6.90;;;4.40;;
80127;SDS011;69440;52.118;5.408;2024-02-26T04:25:25;7.25;;;3.85;;
80127;SDS011;69440;52.118;5.408;2024-02-26T04:27:51;8.10;;;4.78;;
80127;SDS011;69440;52.118;5.408;2024-02-26T04:30:18;6.78;;;4.15;;
80127;SDS011;69440;52.118;5.408;2024-02-26T04:32:45;7.47;;;4.40;;
80127;SDS011;69440;52.118;5.408;2024-02-26T04:35:11;7.22;;;4.43;;
80127;SDS011;69440;52.118;5.408;2024-02-26T04:37:38;7.22;;;4.50;;
80127;SDS011;69440;52.118;5.408;2024-02-26T04:42:32;7.07;;;4.28;;
80127;SDS011;69440;52.118;5.408;2024-02-26T04:44:58;6.47;;;4.22;;
80127;SDS011;69440;52.118;5.408;2024-02-26T04:47:24;7.35;;;4.13;;
80127;SDS011;69440;52.118;5.408;2024-02-26T04:49:51;6.57;;;4.10;;
80127;SDS011;69440;52.118;5.408;2024-02-26T04:52:18;9.07;;;4.53;;
80127;SDS011;69440;52.118;5.408;2024-02-26T04:54:45;9.00;;;4.57;;
80127;SDS011;69440;52.118;5.408;2024-02-26T04:57:12;6.80;;;4.18;;
80127;SDS011;69440;52.118;5.408;2024-02-26T04:59:38;7.28;;;4.45;;
80127;SDS011;69440;52.118;5.408;2024-02-26T05:02:06;7.72;;;4.32;;
80127;SDS011;69440;52.118;5.408;2024-02-26T05:04:33;8.20;;;4.93;;
80127;SDS011;69440;52.118;5.408;2024-02-26T05:07:00;9.45;;;4.60;;
80127;SDS011;69440;52.118;5.408;2024-02-26T05:09:26;8.02;;;4.38;;
80127;SDS011;69440;52.118;5.408;2024-02-26T05:11:53;7.47;;;4.55;;
80127;SDS011;69440;52.118;5.408;2024-02-26T05:14:19;8.07;;;4.25;;
80127;SDS011;69440;52.118;5.408;2024-02-26T05:16:46;5.93;;;4.07;;
80127;SDS011;69440;52.118;5.408;2024-02-26T05:19:13;7.65;;;4.53;;
80127;SDS011;69440;52.118;5.408;2024-02-26T05:21:39;6.72;;;4.07;;
80127;SDS011;69440;52.118;5.408;2024-02-26T05:24:06;7.85;;;4.97;;
80127;SDS011;69440;52.118;5.408;2024-02-26T05:26:33;8.98;;;4.55;;
80127;SDS011;69440;52.118;5.408;2024-02-26T05:31:26;6.47;;;4.43;;
80127;SDS011;69440;52.118;5.408;2024-02-26T05:33:53;10.48;;;5.30;;
80127;SDS011;69440;52.118;5.408;2024-02-26T05:36:20;7.97;;;4.50;;
80127;SDS011;69440;52.118;5.408;2024-02-26T05:38:48;9.55;;;5.03;;
80127;SDS011;69440;52.118;5.408;2024-02-26T05:41:15;8.43;;;4.93;;
80127;SDS011;69440;52.118;5.408;2024-02-26T05:43:46;7.75;;;4.35;;
80127;SDS011;69440;52.118;5.408;2024-02-26T05:48:39;9.40;;;4.60;;
80127;SDS011;69440;52.118;5.408;2024-02-26T05:51:05;10.52;;;5.43;;
80127;SDS011;69440;52.118;5.408;2024-02-26T05:53:32;9.63;;;5.00;;
80127;SDS011;69440;52.118;5.408;2024-02-26T05:55:58;8.35;;;5.00;;
80127;SDS011;69440;52.118;5.408;2024-02-26T05:58:25;9.55;;;5.72;;
80127;SDS011;69440;52.118;5.408;2024-02-26T06:00:51;11.73;;;5.60;;
80127;SDS011;69440;52.118;5.408;2024-02-26T06:03:18;9.48;;;5.70;;
80127;SDS011;69440;52.118;5.408;2024-02-26T06:05:45;8.73;;;5.00;;
80127;SDS011;69440;52.118;5.408;2024-02-26T06:08:12;8.73;;;5.07;;
80127;SDS011;69440;52.118;5.408;2024-02-26T06:13:05;9.25;;;5.32;;
80127;SDS011;69440;52.118;5.408;2024-02-26T06:17:58;8.13;;;4.60;;
80127;SDS011;69440;52.118;5.408;2024-02-26T06:20:25;8.82;;;5.07;;
80127;SDS011;69440;52.118;5.408;2024-02-26T06:25:17;8.98;;;4.80;;
80127;SDS011;69440;52.118;5.408;2024-02-26T06:27:44;10.02;;;5.35;;
80127;SDS011;69440;52.118;5.408;2024-02-26T06:30:10;12.02;;;6.07;;
80127;SDS011;69440;52.118;5.408;2024-02-26T06:32:37;9.57;;;5.40;;
80127;SDS011;69440;52.118;5.408;2024-02-26T06:35:04;9.45;;;5.15;;
80127;SDS011;69440;52.118;5.408;2024-02-26T06:37:34;11.80;;;6.35;;
80127;SDS011;69440;52.118;5.408;2024-02-26T06:40:01;13.27;;;5.70;;
80127;SDS011;69440;52.118;5.408;2024-02-26T06:42:30;12.05;;;5.53;;
80127;SDS011;69440;52.118;5.408;2024-02-26T06:44:57;11.20;;;5.72;;
80127;SDS011;69440;52.118;5.408;2024-02-26T06:47:24;9.48;;;4.90;;
80127;SDS011;69440;52.118;5.408;2024-02-26T06:49:50;9.95;;;5.68;;
80127;SDS011;69440;52.118;5.408;2024-02-26T06:52:17;12.43;;;6.47;;
80127;SDS011;69440;52.118;5.408;2024-02-26T06:54:43;12.02;;;6.10;;
80127;SDS011;69440;52.118;5.408;2024-02-26T06:57:11;14.23;;;6.30;;
80127;SDS011;69440;52.118;5.408;2024-02-26T06:59:37;11.32;;;5.72;;
80127;SDS011;69440;52.118;5.408;2024-02-26T07:02:04;13.18;;;6.47;;
80127;SDS011;69440;52.118;5.408;2024-02-26T07:04:31;12.75;;;6.70;;
80127;SDS011;69440;52.118;5.408;2024-02-26T07:07:00;13.70;;;6.22;;
80127;SDS011;69440;52.118;5.408;2024-02-26T07:09:27;14.25;;;6.88;;
80127;SDS011;69440;52.118;5.408;2024-02-26T07:11:53;12.75;;;6.50;;
80127;SDS011;69440;52.118;5.408;2024-02-26T07:14:21;13.73;;;7.32;;
80127;SDS011;69440;52.118;5.408;2024-02-26T07:16:48;14.23;;;6.57;;
80127;SDS011;69440;52.118;5.408;2024-02-26T07:19:15;13.23;;;6.85;;
80127;SDS011;69440;52.118;5.408;2024-02-26T07:21:41;12.90;;;6.43;;
80127;SDS011;69440;52.118;5.408;2024-02-26T07:24:08;15.68;;;6.97;;
80127;SDS011;69440;52.118;5.408;2024-02-26T07:26:34;16.83;;;7.55;;
80127;SDS011;69440;52.118;5.408;2024-02-26T07:29:01;15.77;;;7.43;;
80127;SDS011;69440;52.118;5.408;2024-02-26T07:31:27;16.95;;;8.45;;
80127;SDS011;69440;52.118;5.408;2024-02-26T07:33:54;14.15;;;6.82;;
80127;SDS011;69440;52.118;5.408;2024-02-26T07:36:21;16.90;;;7.63;;
80127;SDS011;69440;52.118;5.408;2024-02-26T07:38:47;19.70;;;8.70;;
80127;SDS011;69440;52.118;5.408;2024-02-26T07:41:15;15.65;;;7.65;;
80127;SDS011;69440;52.118;5.408;2024-02-26T07:46:10;17.48;;;8.15;;
80127;SDS011;69440;52.118;5.408;2024-02-26T07:48:38;19.65;;;8.73;;
80127;SDS011;69440;52.118;5.408;2024-02-26T07:51:04;16.02;;;8.70;;
80127;SDS011;69440;52.118;5.408;2024-02-26T07:53:31;17.85;;;9.50;;
80127;SDS011;69440;52.118;5.408;2024-02-26T07:55:57;15.57;;;7.80;;
80127;SDS011;69440;52.118;5.408;2024-02-26T07:58:24;16.20;;;8.68;;
80127;SDS011;69440;52.118;5.408;2024-02-26T08:00:50;17.63;;;8.65;;
80127;SDS011;69440;52.118;5.408;2024-02-26T08:03:17;16.60;;;8.70;;
80127;SDS011;69440;52.118;5.408;2024-02-26T08:05:43;17.55;;;8.98;;
80127;SDS011;69440;52.118;5.408;2024-02-26T08:08:10;17.45;;;8.07;;
80127;SDS011;69440;52.118;5.408;2024-02-26T08:10:37;17.08;;;8.82;;
80127;SDS011;69440;52.118;5.408;2024-02-26T08:13:03;18.75;;;8.10;;
80127;SDS011;69440;52.118;5.408;2024-02-26T08:15:32;18.17;;;9.15;;
80127;SDS011;69440;52.118;5.408;2024-02-26T08:18:03;17.35;;;9.10;;
80127;SDS011;69440;52.118;5.408;2024-02-26T08:20:31;13.27;;;7.45;;
80127;SDS011;69440;52.118;5.408;2024-02-26T08:22:57;15.52;;;8.02;;
80127;SDS011;69440;52.118;5.408;2024-02-26T08:25:24;16.63;;;8.10;;
80127;SDS011;69440;52.118;5.408;2024-02-26T08:27:51;16.83;;;8.48;;
80127;SDS011;69440;52.118;5.408;2024-02-26T08:30:17;13.73;;;8.27;;
80127;SDS011;69440;52.118;5.408;2024-02-26T08:32:45;13.30;;;6.47;;
80127;SDS011;69440;52.118;5.408;2024-02-26T08:35:18;12.60;;;6.88;;
80127;SDS011;69440;52.118;5.408;2024-02-26T08:37:45;11.90;;;7.03;;
80127;SDS011;69440;52.118;5.408;2024-02-26T08:40:13;11.40;;;6.55;;
80127;SDS011;69440;52.118;5.408;2024-02-26T08:42:40;10.80;;;6.60;;
80127;SDS011;69440;52.118;5.408;2024-02-26T08:45:07;12.27;;;6.03;;
80127;SDS011;69440;52.118;5.408;2024-02-26T08:47:34;9.93;;;5.38;;
80127;SDS011;69440;52.118;5.408;2024-02-26T08:50:01;10.88;;;5.70;;
80127;SDS011;69440;52.118;5.408;2024-02-26T08:52:28;9.00;;;5.63;;
80127;SDS011;69440;52.118;5.408;2024-02-26T08:54:54;10.05;;;5.55;;
80127;SDS011;69440;52.118;5.408;2024-02-26T08:57:21;10.13;;;5.28;;
80127;SDS011;69440;52.118;5.408;2024-02-26T08:59:48;9.15;;;5.57;;
80127;SDS011;69440;52.118;5.408;2024-02-26T09:02:14;8.55;;;5.60;;
80127;SDS011;69440;52.118;5.408;2024-02-26T09:04:41;10.18;;;6.30;;
80127;SDS011;69440;52.118;5.408;2024-02-26T09:07:07;12.07;;;6.47;;
80127;SDS011;69440;52.118;5.408;2024-02-26T09:09:34;10.02;;;5.50;;
80127;SDS011;69440;52.118;5.408;2024-02-26T09:12:00;8.25;;;4.95;;
80127;SDS011;69440;52.118;5.408;2024-02-26T09:14:28;9.05;;;5.65;;
80127;SDS011;69440;52.118;5.408;2024-02-26T09:16:54;9.45;;;5.75;;
80127;SDS011;69440;52.118;5.408;2024-02-26T09:19:21;8.98;;;5.32;;
80127;SDS011;69440;52.118;5.408;2024-02-26T09:21:47;10.10;;;5.38;;
80127;SDS011;69440;52.118;5.408;2024-02-26T09:24:14;10.57;;;5.22;;
80127;SDS011;69440;52.118;5.408;2024-02-26T09:26:41;8.88;;;5.13;;
80127;SDS011;69440;52.118;5.408;2024-02-26T09:29:07;9.05;;;4.78;;
80127;SDS011;69440;52.118;5.408;2024-02-26T09:31:34;8.73;;;5.45;;
80127;SDS011;69440;52.118;5.408;2024-02-26T09:34:01;8.90;;;4.53;;
80127;SDS011;69440;52.118;5.408;2024-02-26T09:36:28;8.25;;;4.63;;
80127;SDS011;69440;52.118;5.408;2024-02-26T09:38:56;9.93;;;5.38;;
80127;SDS011;69440;52.118;5.408;2024-02-26T09:41:30;7.93;;;4.60;;
80127;SDS011;69440;52.118;5.408;2024-02-26T09:43:57;9.50;;;4.90;;
80127;SDS011;69440;52.118;5.408;2024-02-26T09:46:25;8.68;;;4.68;;
80127;SDS011;69440;52.118;5.408;2024-02-26T09:48:51;7.88;;;4.80;;
80127;SDS011;69440;52.118;5.408;2024-02-26T09:51:19;8.88;;;4.63;;
80127;SDS011;69440;52.118;5.408;2024-02-26T09:53:51;7.53;;;4.63;;
80127;SDS011;69440;52.118;5.408;2024-02-26T09:56:19;7.20;;;4.28;;
80127;SDS011;69440;52.118;5.408;2024-02-26T09:58:46;7.10;;;3.75;;
80127;SDS011;69440;52.118;5.408;2024-02-26T10:01:18;8.73;;;4.35;;
80127;SDS011;69440;52.118;5.408;2024-02-26T10:03:48;7.63;;;3.80;;
80127;SDS011;69440;52.118;5.408;2024-02-26T10:06:21;6.32;;;4.05;;
80127;SDS011;69440;52.118;5.408;2024-02-26T10:08:48;8.52;;;4.57;;
80127;SDS011;69440;52.118;5.408;2024-02-26T10:11:15;7.38;;;4.40;;
80127;SDS011;69440;52.118;5.408;2024-02-26T10:13:42;10.18;;;3.88;;
80127;SDS011;69440;52.118;5.408;2024-02-26T10:16:09;6.80;;;3.67;;
80127;SDS011;69440;52.118;5.408;2024-02-26T10:21:22;6.40;;;4.00;;
80127;SDS011;69440;52.118;5.408;2024-02-26T10:23:49;6.85;;;3.67;;
80127;SDS011;69440;52.118;5.408;2024-02-26T10:26:16;6.43;;;3.60;;
80127;SDS011;69440;52.118;5.408;2024-02-26T10:28:43;8.75;;;4.72;;
80127;SDS011;69440;52.118;5.408;2024-02-26T10:31:11;6.60;;;3.92;;
80127;SDS011;69440;52.118;5.408;2024-02-26T10:33:39;9.43;;;4.13;;
80127;SDS011;69440;52.118;5.408;2024-02-26T10:36:09;7.65;;;3.90;;
80127;SDS011;69440;52.118;5.408;2024-02-26T10:38:36;8.27;;;4.57;;
80127;SDS011;69440;52.118;5.408;2024-02-26T10:41:04;6.35;;;4.13;;
80127;SDS011;69440;52.118;5.408;2024-02-26T10:43:32;7.35;;;4.55;;
80127;SDS011;69440;52.118;5.408;2024-02-26T10:45:58;7.93;;;4.10;;
80127;SDS011;69440;52.118;5.408;2024-02-26T10:48:25;7.93;;;4.40;;
80127;SDS011;69440;52.118;5.408;2024-02-26T10:50:52;8.80;;;4.45;;
80127;SDS011;69440;52.118;5.408;2024-02-26T10:53:22;8.50;;;3.95;;
80127;SDS011;69440;52.118;5.408;2024-02-26T10:55:53;8.55;;;4.57;;
80127;SDS011;69440;52.118;5.408;2024-02-26T10:58:23;8.45;;;3.90;;
80127;SDS011;69440;52.118;5.408;2024-02-26T11:00:51;6.97;;;4.07;;
80127;SDS011;69440;52.118;5.408;2024-02-26T11:03:19;7.05;;;3.65;;
80127;SDS011;69440;52.118;5.408;2024-02-26T11:05:47;8.13;;;3.97;;
80127;SDS011;69440;52.118;5.408;2024-02-26T11:08:18;7.82;;;4.85;;
80127;SDS011;69440;52.118;5.408;2024-02-26T11:10:47;7.47;;;4.50;;
80127;SDS011;69440;52.118;5.408;2024-02-26T11:13:17;6.28;;;3.75;;
80127;SDS011;69440;52.118;5.408;2024-02-26T11:15:47;6.35;;;4.00;;
80127;SDS011;69440;52.118;5.408;2024-02-26T11:18:15;8.95;;;4.32;;
80127;SDS011;69440;52.118;5.408;2024-02-26T11:20:45;6.78;;;3.58;;
80127;SDS011;69440;52.118;5.408;2024-02-26T11:23:12;7.80;;;3.70;;
80127;SDS011;69440;52.118;5.408;2024-02-26T11:25:39;6.50;;;3.95;;
80127;SDS011;69440;52.118;5.408;2024-02-26T11:28:06;7.25;;;3.95;;
80127;SDS011;69440;52.118;5.408;2024-02-26T11:30:42;6.45;;;3.65;;
80127;SDS011;69440;52.118;5.408;2024-02-26T11:33:12;7.13;;;4.22;;
80127;SDS011;69440;52.118;5.408;2024-02-26T11:35:41;6.22;;;3.67;;
80127;SDS011;69440;52.118;5.408;2024-02-26T11:38:08;6.30;;;4.20;;
80127;SDS011;69440;52.118;5.408;2024-02-26T11:40:37;7.40;;;4.40;;
80127;SDS011;69440;52.118;5.408;2024-02-26T11:43:05;6.07;;;3.92;;
80127;SDS011;69440;52.118;5.408;2024-02-26T11:48:12;6.75;;;3.75;;
80127;SDS011;69440;52.118;5.408;2024-02-26T11:50:40;6.43;;;3.53;;
80127;SDS011;69440;52.118;5.408;2024-02-26T11:58:58;7.55;;;3.83;;
80127;SDS011;69440;52.118;5.408;2024-02-26T12:01:46;5.10;;;3.53;;
80127;SDS011;69440;52.118;5.408;2024-02-26T12:04:19;8.13;;;4.03;;
80127;SDS011;69440;52.118;5.408;2024-02-26T12:06:51;7.60;;;4.15;;
80127;SDS011;69440;52.118;5.408;2024-02-26T12:09:40;6.88;;;4.20;;
80127;SDS011;69440;52.118;5.408;2024-02-26T12:12:08;6.50;;;3.95;;
80127;SDS011;69440;52.118;5.408;2024-02-26T12:14:39;7.70;;;3.95;;
80127;SDS011;69440;52.118;5.408;2024-02-26T12:17:07;7.53;;;4.32;;
80127;SDS011;69440;52.118;5.408;2024-02-26T12:19:45;8.18;;;4.40;;
80127;SDS011;69440;52.118;5.408;2024-02-26T12:22:13;6.00;;;3.70;;
80127;SDS011;69440;52.118;5.408;2024-02-26T12:24:41;6.68;;;4.00;;
80127;SDS011;69440;52.118;5.408;2024-02-26T12:27:08;7.43;;;3.78;;
80127;SDS011;69440;52.118;5.408;2024-02-26T12:29:34;7.63;;;4.57;;
80127;SDS011;69440;52.118;5.408;2024-02-26T12:32:01;8.65;;;4.82;;
80127;SDS011;69440;52.118;5.408;2024-02-26T12:34:32;7.95;;;4.13;;
80127;SDS011;69440;52.118;5.408;2024-02-26T12:36:59;5.95;;;4.05;;
80127;SDS011;69440;52.118;5.408;2024-02-26T12:39:27;7.97;;;3.78;;
80127;SDS011;69440;52.118;5.408;2024-02-26T12:41:55;6.90;;;3.85;;
80127;SDS011;69440;52.118;5.408;2024-02-26T12:44:25;6.75;;;3.60;;
80127;SDS011;69440;52.118;5.408;2024-02-26T12:47:02;5.90;;;3.78;;
80127;SDS011;69440;52.118;5.408;2024-02-26T12:49:29;7.25;;;3.97;;
80127;SDS011;69440;52.118;5.408;2024-02-26T12:51:57;6.72;;;4.10;;
80127;SDS011;69440;52.118;5.408;2024-02-26T12:54:30;6.47;;;3.38;;
80127;SDS011;69440;52.118;5.408;2024-02-26T12:57:00;7.45;;;3.72;;
80127;SDS011;69440;52.118;5.408;2024-02-26T12:59:28;6.20;;;3.53;;
80127;SDS011;69440;52.118;5.408;2024-02-26T13:01:56;5.53;;;3.38;;
80127;SDS011;69440;52.118;5.408;2024-02-26T13:04:23;8.07;;;3.58;;
80127;SDS011;69440;52.118;5.408;2024-02-26T13:06:50;5.90;;;3.65;;
80127;SDS011;69440;52.118;5.408;2024-02-26T13:09:17;6.50;;;4.22;;
80127;SDS011;69440;52.118;5.408;2024-02-26T13:11:46;6.20;;;3.33;;
80127;SDS011;69440;52.118;5.408;2024-02-26T13:14:20;6.78;;;3.40;;
80127;SDS011;69440;52.118;5.408;2024-02-26T13:17:05;6.03;;;3.78;;
80127;SDS011;69440;52.118;5.408;2024-02-26T13:19:31;6.45;;;3.42;;
80127;SDS011;69440;52.118;5.408;2024-02-26T13:22:05;7.78;;;4.15;;
80127;SDS011;69440;52.118;5.408;2024-02-26T13:24:33;6.25;;;3.75;;
80127;SDS011;69440;52.118;5.408;2024-02-26T13:27:00;6.45;;;3.75;;
80127;SDS011;69440;52.118;5.408;2024-02-26T13:29:29;7.88;;;3.97;;
80127;SDS011;69440;52.118;5.408;2024-02-26T13:31:59;6.75;;;3.65;;
80127;SDS011;69440;52.118;5.408;2024-02-26T13:34:25;5.85;;;3.45;;
80127;SDS011;69440;52.118;5.408;2024-02-26T13:36:54;6.10;;;3.60;;
80127;SDS011;69440;52.118;5.408;2024-02-26T13:39:24;5.55;;;3.33;;
80127;SDS011;69440;52.118;5.408;2024-02-26T13:41:53;7.00;;;3.85;;
80127;SDS011;69440;52.118;5.408;2024-02-26T13:44:20;5.40;;;3.13;;
80127;SDS011;69440;52.118;5.408;2024-02-26T13:46:47;6.55;;;3.60;;
80127;SDS011;69440;52.118;5.408;2024-02-26T13:49:15;6.10;;;3.33;;
80127;SDS011;69440;52.118;5.408;2024-02-26T13:51:42;6.95;;;3.63;;
80127;SDS011;69440;52.118;5.408;2024-02-26T13:54:09;5.95;;;3.75;;
80127;SDS011;69440;52.118;5.408;2024-02-26T13:56:40;6.82;;;3.67;;
80127;SDS011;69440;52.118;5.408;2024-02-26T13:59:08;9.23;;;4.18;;
80127;SDS011;69440;52.118;5.408;2024-02-26T14:01:35;6.40;;;4.03;;
80127;SDS011;69440;52.118;5.408;2024-02-26T14:04:01;6.18;;;3.58;;
80127;SDS011;69440;52.118;5.408;2024-02-26T14:06:29;6.07;;;3.58;;
80127;SDS011;69440;52.118;5.408;2024-02-26T14:08:57;6.03;;;3.70;;
80127;SDS011;69440;52.118;5.408;2024-02-26T14:11:25;6.60;;;3.72;;
80127;SDS011;69440;52.118;5.408;2024-02-26T14:13:51;4.55;;;2.70;;
80127;SDS011;69440;52.118;5.408;2024-02-26T14:16:18;5.60;;;3.10;;
80127;SDS011;69440;52.118;5.408;2024-02-26T14:18:46;5.95;;;3.67;;
80127;SDS011;69440;52.118;5.408;2024-02-26T14:21:13;6.13;;;3.20;;
80127;SDS011;69440;52.118;5.408;2024-02-26T14:23:40;6.32;;;3.22;;
80127;SDS011;69440;52.118;5.408;2024-02-26T14:26:06;5.85;;;3.45;;
80127;SDS011;69440;52.118;5.408;2024-02-26T14:28:33;5.65;;;3.58;;
80127;SDS011;69440;52.118;5.408;2024-02-26T14:31:02;4.65;;;2.97;;
80127;SDS011;69440;52.118;5.408;2024-02-26T14:33:30;7.53;;;3.50;;
80127;SDS011;69440;52.118;5.408;2024-02-26T14:35:57;4.15;;;2.80;;
80127;SDS011;69440;52.118;5.408;2024-02-26T14:38:24;5.07;;;3.28;;
80127;SDS011;69440;52.118;5.408;2024-02-26T14:40:50;5.50;;;3.38;;
80127;SDS011;69440;52.118;5.408;2024-02-26T14:43:17;4.60;;;3.10;;
80127;SDS011;69440;52.118;5.408;2024-02-26T14:45:43;5.60;;;3.55;;
80127;SDS011;69440;52.118;5.408;2024-02-26T14:48:10;5.30;;;3.15;;
80127;SDS011;69440;52.118;5.408;2024-02-26T14:50:37;5.68;;;3.28;;
80127;SDS011;69440;52.118;5.408;2024-02-26T14:53:04;5.13;;;2.47;;
80127;SDS011;69440;52.118;5.408;2024-02-26T14:55:30;5.10;;;3.17;;
80127;SDS011;69440;52.118;5.408;2024-02-26T14:57:57;4.57;;;2.97;;
80127;SDS011;69440;52.118;5.408;2024-02-26T15:00:23;3.92;;;2.95;;
80127;SDS011;69440;52.118;5.408;2024-02-26T15:02:50;5.13;;;2.90;;
80127;SDS011;69440;52.118;5.408;2024-02-26T15:05:18;4.40;;;2.53;;
80127;SDS011;69440;52.118;5.408;2024-02-26T15:07:46;3.90;;;2.45;;
80127;SDS011;69440;52.118;5.408;2024-02-26T15:10:12;6.88;;;2.38;;
80127;SDS011;69440;52.118;5.408;2024-02-26T15:12:39;6.57;;;2.55;;
80127;SDS011;69440;52.118;5.408;2024-02-26T15:15:05;5.05;;;3.00;;
80127;SDS011;69440;52.118;5.408;2024-02-26T15:17:32;5.47;;;2.42;;
80127;SDS011;69440;52.118;5.408;2024-02-26T15:20:01;5.18;;;2.70;;
80127;SDS011;69440;52.118;5.408;2024-02-26T15:22:29;4.32;;;2.20;;
80127;SDS011;69440;52.118;5.408;2024-02-26T15:24:55;4.60;;;2.33;;
80127;SDS011;69440;52.118;5.408;2024-02-26T15:27:22;4.45;;;2.70;;
80127;SDS011;69440;52.118;5.408;2024-02-26T15:29:48;4.43;;;2.67;;